createdAt,value
2022-12-18T00:01:21.230Z,-3.35
2022-12-18T00:03:47.947Z,-3.34
2022-12-18T00:06:15.540Z,-3.31
2022-12-18T00:08:43.323Z,-3.25
2022-12-18T00:11:12.801Z,-3.27
2022-12-18T00:13:39.629Z,-3.25
2022-12-18T00:16:20.819Z,-3.27
2022-12-18T00:18:48.582Z,-3.22
2022-12-18T00:21:15.265Z,-3.21
2022-12-18T00:23:43.758Z,-3.30
2022-12-18T00:26:19.104Z,-3.23
2022-12-18T00:28:46.258Z,-3.20
2022-12-18T00:31:16.037Z,-3.19
2022-12-18T00:33:43.006Z,-3.24
2022-12-18T00:36:18.815Z,-3.19
2022-12-18T00:38:46.006Z,-3.17
2022-12-18T00:41:15.022Z,-3.12
2022-12-18T00:43:41.889Z,-3.11
2022-12-18T00:46:08.547Z,-3.06
2022-12-18T00:48:36.079Z,-3.10
2022-12-18T00:51:02.457Z,-3.01
2022-12-18T00:53:28.928Z,-3.14
2022-12-18T00:55:55.390Z,-3.17
2022-12-18T00:58:21.794Z,-3.19
2022-12-18T01:00:48.162Z,-3.21
2022-12-18T01:03:16.324Z,-3.12
2022-12-18T01:05:43.398Z,-3.15
2022-12-18T01:08:09.993Z,-3.17
2022-12-18T01:10:36.580Z,-3.17
2022-12-18T01:13:03.036Z,-3.09
2022-12-18T01:15:29.630Z,-3.12
2022-12-18T01:17:56.022Z,-3.11
2022-12-18T01:20:22.418Z,-3.09
2022-12-18T01:22:48.884Z,-3.07
2022-12-18T01:25:15.314Z,-3.15
2022-12-18T01:27:41.753Z,-3.16
2022-12-18T01:30:08.878Z,-3.12
2022-12-18T01:32:35.331Z,-3.08
2022-12-18T01:35:02.913Z,-3.17
2022-12-18T01:37:29.416Z,-3.14
2022-12-18T01:39:56.628Z,-3.14
2022-12-18T01:42:23.451Z,-3.20
2022-12-18T01:45:28.826Z,-3.13
2022-12-18T01:48:07.668Z,-3.10
2022-12-18T01:50:41.148Z,-3.12
2022-12-18T01:53:12.513Z,-3.11
2022-12-18T01:55:44.604Z,-3.06
2022-12-18T01:58:11.228Z,-3.03
2022-12-18T02:00:37.640Z,-3.03
2022-12-18T02:03:04.188Z,-2.99
2022-12-18T02:05:36.625Z,-3.00
2022-12-18T02:08:24.887Z,-3.05
2022-12-18T02:11:03.451Z,-3.21
2022-12-18T02:13:52.191Z,-3.37
2022-12-18T02:16:47.757Z,-3.39
2022-12-18T02:19:39.167Z,-3.46
2022-12-18T02:22:52.231Z,-3.68
2022-12-18T02:25:52.598Z,-3.79
2022-12-18T02:28:23.512Z,-3.92
2022-12-18T02:30:54.276Z,-3.96
2022-12-18T02:33:26.183Z,-3.97
2022-12-18T02:35:55.331Z,-4.01
2022-12-18T02:38:21.926Z,-4.05
2022-12-18T02:40:51.115Z,-4.24
2022-12-18T02:43:17.558Z,-4.38
2022-12-18T02:45:56.718Z,-4.34
2022-12-18T02:48:26.892Z,-4.21
2022-12-18T02:51:12.703Z,-4.30
2022-12-18T02:53:54.344Z,-4.40
2022-12-18T02:56:32.066Z,-4.42
2022-12-18T02:59:07.239Z,-4.41
2022-12-18T03:01:51.764Z,-4.50
2022-12-18T03:04:23.801Z,-4.49
2022-12-18T03:06:55.543Z,-4.50
2022-12-18T03:09:40.360Z,-4.54
2022-12-18T03:12:33.441Z,-4.60
2022-12-18T03:15:29.027Z,-4.62
2022-12-18T03:18:12.086Z,-4.68
2022-12-18T03:20:40.770Z,-4.72
2022-12-18T03:23:17.663Z,-4.80
2022-12-18T03:25:46.876Z,-4.88
2022-12-18T03:28:17.628Z,-4.91
2022-12-18T03:30:46.614Z,-4.97
2022-12-18T03:33:20.629Z,-4.88
2022-12-18T03:35:47.586Z,-4.92
2022-12-18T03:38:14.756Z,-4.94
2022-12-18T03:40:44.134Z,-4.94
2022-12-18T03:43:55.059Z,-5.02
2022-12-18T03:46:31.803Z,-4.93
2022-12-18T03:49:12.171Z,-4.94
2022-12-18T03:51:45.016Z,-4.94
2022-12-18T03:54:12.616Z,-5.00
2022-12-18T03:56:48.004Z,-4.99
2022-12-18T03:59:17.531Z,-4.97
2022-12-18T04:01:48.595Z,-5.04
2022-12-18T04:04:17.120Z,-5.07
2022-12-18T04:06:45.701Z,-5.13
2022-12-18T04:09:12.885Z,-5.15
2022-12-18T04:11:40.596Z,-5.15
2022-12-18T04:14:07.446Z,-5.07
2022-12-18T04:16:34.113Z,-5.03
2022-12-18T04:19:00.499Z,-5.12
2022-12-18T04:21:26.914Z,-5.09
2022-12-18T04:23:53.596Z,-5.04
2022-12-18T04:26:20.020Z,-5.06
2022-12-18T04:28:46.445Z,-5.06
2022-12-18T04:31:14.028Z,-5.05
2022-12-18T04:33:40.935Z,-5.08
2022-12-18T04:36:08.159Z,-5.08
2022-12-18T04:38:34.628Z,-5.23
2022-12-18T04:41:01.041Z,-5.25
2022-12-18T04:43:27.611Z,-5.23
2022-12-18T04:45:54.036Z,-5.21
2022-12-18T04:48:21.662Z,-5.26
2022-12-18T04:50:49.074Z,-5.33
2022-12-18T04:53:15.522Z,-5.41
2022-12-18T04:55:41.943Z,-5.42
2022-12-18T04:58:08.511Z,-5.51
2022-12-18T05:00:36.062Z,-5.53
2022-12-18T05:03:03.435Z,-5.50
2022-12-18T05:05:30.262Z,-5.49
2022-12-18T05:07:56.650Z,-5.48
2022-12-18T05:10:23.002Z,-5.41
2022-12-18T05:13:01.817Z,-5.40
2022-12-18T05:15:33.096Z,-5.51
2022-12-18T05:18:00.093Z,-5.52
2022-12-18T05:20:27.752Z,-5.50
2022-12-18T05:22:55.147Z,-5.50
2022-12-18T05:25:22.937Z,-5.44
2022-12-18T05:27:49.668Z,-5.38
2022-12-18T05:30:16.751Z,-5.37
2022-12-18T05:32:43.713Z,-5.40
2022-12-18T05:35:13.335Z,-5.48
2022-12-18T05:37:43.219Z,-5.46
2022-12-18T05:40:11.114Z,-5.49
2022-12-18T05:42:37.850Z,-5.50
2022-12-18T05:45:05.620Z,-5.44
2022-12-18T05:47:32.075Z,-5.48
2022-12-18T05:49:58.664Z,-5.42
2022-12-18T05:52:25.533Z,-5.43
2022-12-18T05:54:51.983Z,-5.39
2022-12-18T05:57:18.564Z,-5.44
2022-12-18T05:59:45.102Z,-5.42
2022-12-18T06:02:11.586Z,-5.41
2022-12-18T06:04:38.129Z,-5.45
2022-12-18T06:07:04.854Z,-5.44
2022-12-18T06:09:31.272Z,-5.52
2022-12-18T06:11:57.684Z,-5.54
2022-12-18T06:14:24.262Z,-5.51
2022-12-18T06:16:52.856Z,-5.49
2022-12-18T06:19:19.335Z,-5.43
2022-12-18T06:21:46.627Z,-5.51
2022-12-18T06:24:13.125Z,-5.51
2022-12-18T06:26:39.908Z,-5.43
2022-12-18T06:29:06.495Z,-5.35
2022-12-18T06:31:33.086Z,-5.40
2022-12-18T06:33:59.584Z,-5.36
2022-12-18T06:36:26.078Z,-5.35
2022-12-18T06:38:52.480Z,-5.49
2022-12-18T06:41:21.767Z,-5.46
2022-12-18T06:43:48.276Z,-5.44
2022-12-18T06:46:15.072Z,-5.44
2022-12-18T06:48:41.613Z,-5.51
2022-12-18T06:51:08.236Z,-5.43
2022-12-18T06:53:35.083Z,-5.43
2022-12-18T06:56:09.156Z,-5.46
2022-12-18T06:58:36.534Z,-5.48
2022-12-18T07:01:05.640Z,-5.53
2022-12-18T07:03:32.777Z,-5.55
2022-12-18T07:05:59.340Z,-5.49
2022-12-18T07:08:26.052Z,-5.48
2022-12-18T07:10:56.113Z,-5.50
2022-12-18T07:13:23.719Z,-5.44
2022-12-18T07:15:50.332Z,-5.38
2022-12-18T07:18:16.756Z,-5.28
2022-12-18T07:20:43.192Z,-5.21
2022-12-18T07:23:09.779Z,-5.21
2022-12-18T07:25:37.193Z,-5.24
2022-12-18T07:28:04.756Z,-5.19
2022-12-18T07:30:31.095Z,-5.29
2022-12-18T07:32:57.508Z,-5.34
2022-12-18T07:35:25.298Z,-5.27
2022-12-18T07:37:52.156Z,-5.32
2022-12-18T07:40:18.641Z,-5.39
2022-12-18T07:42:45.052Z,-5.40
2022-12-18T07:45:11.906Z,-5.35
2022-12-18T07:47:38.303Z,-5.36
2022-12-18T07:50:05.816Z,-5.29
2022-12-18T07:52:32.205Z,-5.20
2022-12-18T07:54:59.499Z,-5.16
2022-12-18T07:58:00.860Z,-5.07
2022-12-18T08:00:13.341Z,-5.03
2022-12-18T08:02:40.097Z,-5.05
2022-12-18T08:05:07.082Z,-5.03
2022-12-18T08:07:33.500Z,-4.93
2022-12-18T08:10:00.008Z,-4.95
2022-12-18T08:12:26.440Z,-5.00
2022-12-18T08:14:52.805Z,-4.96
2022-12-18T08:17:21.125Z,-4.89
2022-12-18T08:19:47.565Z,-4.83
2022-12-18T08:22:14.014Z,-4.74
2022-12-18T08:24:40.418Z,-4.59
2022-12-18T08:27:28.363Z,-4.51
2022-12-18T08:29:53.427Z,-4.49
2022-12-18T08:32:19.905Z,-4.43
2022-12-18T08:34:46.339Z,-4.30
2022-12-18T08:37:12.940Z,-4.19
2022-12-18T08:39:39.349Z,-4.07
2022-12-18T08:42:24.567Z,-4.03
2022-12-18T08:44:51.116Z,-3.97
2022-12-18T08:47:17.562Z,-3.81
2022-12-18T08:49:44.028Z,-3.72
2022-12-18T08:52:10.442Z,-3.62
2022-12-18T08:54:36.904Z,-3.50
2022-12-18T08:57:03.313Z,-3.36
2022-12-18T08:59:29.699Z,-3.17
2022-12-18T09:01:56.503Z,-3.11
2022-12-18T09:04:23.429Z,-3.07
2022-12-18T09:06:49.898Z,-2.97
2022-12-18T09:09:16.527Z,-2.84
2022-12-18T09:11:42.844Z,-2.68
2022-12-18T09:14:10.430Z,-2.60
2022-12-18T09:16:36.793Z,-2.45
2022-12-18T09:19:04.953Z,-2.34
2022-12-18T09:21:36.880Z,-2.24
2022-12-18T09:24:04.497Z,-2.12
2022-12-18T09:26:33.560Z,-2.04
2022-12-18T09:29:00.020Z,-2.04
2022-12-18T09:31:26.487Z,-1.85
2022-12-18T09:33:52.949Z,-1.74
2022-12-18T09:36:20.349Z,-1.70
2022-12-18T09:38:48.204Z,-1.59
2022-12-18T09:41:20.823Z,-1.46
2022-12-18T09:43:51.298Z,-1.27
2022-12-18T09:46:26.977Z,-1.29
2022-12-18T09:48:58.068Z,-1.20
2022-12-18T09:51:31.004Z,-1.12
2022-12-18T09:54:05.247Z,-1.10
2022-12-18T09:56:38.583Z,-1.02
2022-12-18T09:59:05.786Z,-0.91
2022-12-18T10:01:41.578Z,-0.81
2022-12-18T10:04:11.171Z,-0.77
2022-12-18T10:06:52.648Z,-0.76
2022-12-18T10:09:18.939Z,-0.74
2022-12-18T10:12:20.497Z,-0.71
2022-12-18T10:15:05.585Z,-0.68
2022-12-18T10:18:06.497Z,-0.56
2022-12-18T10:20:48.832Z,-0.53
2022-12-18T10:23:22.343Z,-0.57
2022-12-18T10:25:59.070Z,-0.53
2022-12-18T10:28:27.254Z,-0.52
2022-12-18T10:30:53.807Z,-0.42
2022-12-18T10:33:23.083Z,-0.39
2022-12-18T10:35:53.601Z,-0.28
2022-12-18T10:38:20.182Z,-0.25
2022-12-18T10:40:58.233Z,-0.07
2022-12-18T10:43:33.725Z,-0.01
2022-12-18T10:46:09.470Z,-0.10
2022-12-18T10:48:48.237Z,0.02
2022-12-18T10:51:31.877Z,0.07
2022-12-18T10:54:01.351Z,0.08
2022-12-18T10:56:31.235Z,0.54
2022-12-18T10:59:06.980Z,1.34
2022-12-18T11:01:56.558Z,0.80
2022-12-18T11:04:26.049Z,0.51
2022-12-18T11:06:55.861Z,0.38
2022-12-18T11:09:25.210Z,0.31
2022-12-18T11:11:54.811Z,0.35
2022-12-18T11:14:28.388Z,0.28
2022-12-18T11:17:24.799Z,0.30
2022-12-18T11:19:42.926Z,0.33
2022-12-18T11:22:28.810Z,0.34
2022-12-18T11:25:33.490Z,0.31
2022-12-18T11:28:04.534Z,0.31
2022-12-18T11:30:36.699Z,0.34
2022-12-18T11:33:19.722Z,0.35
2022-12-18T11:35:54.601Z,0.35
2022-12-18T11:38:26.370Z,0.34
2022-12-18T11:40:59.467Z,0.30
2022-12-18T11:43:32.332Z,0.33
2022-12-18T11:46:19.345Z,0.37
2022-12-18T11:48:53.234Z,0.21
2022-12-18T11:51:34.956Z,0.24
2022-12-18T11:54:09.328Z,0.22
2022-12-18T11:57:02.528Z,0.16
2022-12-18T12:00:14.201Z,0.05
2022-12-18T12:03:08.723Z,0.08
2022-12-18T12:06:02.846Z,0.03
2022-12-18T12:08:50.336Z,0.00
2022-12-18T12:11:41.704Z,0.04
2022-12-18T12:14:29.838Z,-0.04
2022-12-18T12:17:07.991Z,-0.10
2022-12-18T12:19:58.283Z,-0.11
2022-12-18T12:22:47.258Z,-0.05
2022-12-18T12:25:22.747Z,-0.05
2022-12-18T12:28:04.873Z,-0.11
2022-12-18T12:30:40.655Z,-0.08
2022-12-18T12:33:45.149Z,-0.13
2022-12-18T12:36:17.588Z,-0.14
2022-12-18T12:39:01.620Z,-0.13
2022-12-18T12:41:52.126Z,-0.10
2022-12-18T12:47:41.858Z,-0.09
2022-12-18T12:50:17.061Z,-0.08
2022-12-18T12:52:52.711Z,-0.21
2022-12-18T12:55:23.740Z,-0.19
2022-12-18T12:57:58.206Z,-0.28
2022-12-18T13:00:27.889Z,-0.28
2022-12-18T13:03:17.639Z,-0.24
2022-12-18T13:05:55.745Z,-0.25
2022-12-18T13:08:28.349Z,-0.23
2022-12-18T13:11:23.151Z,-0.54
2022-12-18T13:13:55.240Z,-1.28
2022-12-18T13:16:26.494Z,-1.56
2022-12-18T13:18:57.676Z,-1.82
2022-12-18T13:21:33.894Z,-2.02
2022-12-18T13:24:22.854Z,-1.97
2022-12-18T13:26:49.453Z,-1.67
2022-12-18T13:29:45.640Z,-1.31
2022-12-18T13:32:25.383Z,-0.84
2022-12-18T13:35:21.535Z,-0.56
2022-12-18T13:37:53.991Z,-0.49
2022-12-18T13:40:39.240Z,-0.37
2022-12-18T13:43:21.152Z,-0.33
2022-12-18T13:46:25.332Z,-0.28
2022-12-18T13:49:00.788Z,-0.32
2022-12-18T13:51:29.476Z,-0.32
2022-12-18T13:54:00.432Z,-0.33
2022-12-18T13:56:32.749Z,-0.33
2022-12-18T13:59:16.048Z,-0.38
2022-12-18T14:01:50.469Z,-0.36
2022-12-18T14:04:29.671Z,-0.42
2022-12-18T14:07:05.206Z,-0.33
2022-12-18T14:09:36.940Z,-0.36
2022-12-18T14:12:23.308Z,-0.36
2022-12-18T14:14:54.997Z,-0.28
2022-12-18T14:17:21.521Z,-0.34
2022-12-18T14:19:51.212Z,-0.29
2022-12-18T14:22:28.579Z,-0.25
2022-12-18T14:25:13.340Z,-0.26
2022-12-18T14:27:46.456Z,-0.33
2022-12-18T14:30:25.298Z,-0.29
2022-12-18T14:33:11.770Z,-0.31
2022-12-18T14:35:41.120Z,-0.39
2022-12-18T14:38:29.649Z,-0.35
2022-12-18T14:41:20.564Z,-0.35
2022-12-18T14:43:49.208Z,-0.37
2022-12-18T14:46:44.732Z,-0.31
2022-12-18T14:49:35.034Z,-0.36
2022-12-18T14:52:06.908Z,-0.41
2022-12-18T14:54:36.020Z,-0.40
2022-12-18T14:57:18.016Z,-0.43
2022-12-18T14:59:44.533Z,-0.49
2022-12-18T15:02:17.364Z,-0.51
2022-12-18T15:04:44.948Z,-0.48
2022-12-18T15:07:22.610Z,-0.45
2022-12-18T15:10:13.693Z,-0.46
2022-12-18T15:13:00.588Z,-0.56
2022-12-18T15:15:36.855Z,-0.50
2022-12-18T15:18:12.621Z,-0.48
2022-12-18T15:20:43.979Z,-0.54
2022-12-18T15:23:25.732Z,-0.59
2022-12-18T15:26:12.826Z,-0.62
2022-12-18T15:28:47.624Z,-0.57
2022-12-18T15:31:14.042Z,-0.65
2022-12-18T15:34:01.655Z,-0.61
2022-12-18T15:36:30.953Z,-0.60
2022-12-18T15:39:04.032Z,-0.65
2022-12-18T15:41:37.257Z,-0.66
2022-12-18T15:44:21.112Z,-0.69
2022-12-18T15:46:47.734Z,-0.70
2022-12-18T15:49:14.166Z,-0.64
2022-12-18T15:51:40.675Z,-0.67
2022-12-18T15:54:13.024Z,-0.71
2022-12-18T15:56:57.825Z,-0.72
2022-12-18T15:59:25.281Z,-0.72
2022-12-18T16:01:54.116Z,-0.72
2022-12-18T16:04:22.869Z,-0.77
2022-12-18T16:09:37.496Z,-0.79
2022-12-18T16:12:04.175Z,-0.85
2022-12-18T16:14:31.654Z,-0.83
2022-12-18T16:17:01.637Z,-0.86
2022-12-18T16:19:29.240Z,-0.82
2022-12-18T16:21:57.869Z,-0.86
2022-12-18T16:24:30.120Z,-0.93
2022-12-18T16:26:59.723Z,-0.93
2022-12-18T16:29:28.592Z,-0.91
2022-12-18T16:32:00.380Z,-0.91
2022-12-18T16:34:35.911Z,-0.96
2022-12-18T16:37:06.154Z,-0.94
2022-12-18T16:39:37.183Z,-0.98
2022-12-18T16:42:13.406Z,-0.97
2022-12-18T16:44:39.729Z,-1.04
2022-12-18T16:47:06.103Z,-1.04
2022-12-18T16:49:35.153Z,-1.13
2022-12-18T16:52:01.531Z,-1.11
2022-12-18T16:54:30.502Z,-1.15
2022-12-18T16:56:57.668Z,-1.14
2022-12-18T16:59:24.140Z,-1.16
2022-12-18T17:01:50.599Z,-1.16
2022-12-18T17:04:17.188Z,-1.15
2022-12-18T17:06:45.471Z,-1.19
2022-12-18T17:09:16.857Z,-1.23
2022-12-18T17:11:43.469Z,-1.20
2022-12-18T17:14:13.549Z,-1.21
2022-12-18T17:16:40.235Z,-1.21
2022-12-18T17:19:10.963Z,-1.21
2022-12-18T17:21:41.886Z,-1.21
2022-12-18T17:24:08.862Z,-1.20
2022-12-18T17:26:35.192Z,-1.18
2022-12-18T17:29:01.561Z,-1.27
2022-12-18T17:31:30.094Z,-1.23
2022-12-18T17:33:57.871Z,-1.21
2022-12-18T17:36:28.495Z,-1.22
2022-12-18T17:38:58.026Z,-1.23
2022-12-18T17:41:25.780Z,-1.25
2022-12-18T17:43:53.727Z,-1.28
2022-12-18T17:46:20.777Z,-1.29
2022-12-18T17:48:47.321Z,-1.28
2022-12-18T17:51:14.997Z,-1.28
2022-12-18T17:53:41.817Z,-1.28
2022-12-18T17:56:12.021Z,-1.31
2022-12-18T17:58:39.645Z,-1.36
2022-12-18T18:01:06.964Z,-1.32
2022-12-18T18:03:34.729Z,-1.33
2022-12-18T18:06:02.481Z,-1.40
2022-12-18T18:08:29.149Z,-1.36
2022-12-18T18:11:16.064Z,-1.38
2022-12-18T18:14:00.855Z,-1.34
2022-12-18T18:16:40.991Z,-1.42
2022-12-18T18:19:10.840Z,-1.43
2022-12-18T18:21:42.951Z,-1.44
2022-12-18T18:24:11.427Z,-1.43
2022-12-18T18:26:38.374Z,-1.44
2022-12-18T18:29:06.684Z,-1.43
2022-12-18T18:31:35.299Z,-1.47
2022-12-18T18:34:07.764Z,-1.50
2022-12-18T18:36:34.602Z,-1.51
2022-12-18T18:39:01.440Z,-1.51
2022-12-18T18:41:29.831Z,-1.43
2022-12-18T18:43:57.627Z,-1.36
2022-12-18T18:46:24.454Z,-1.35
2022-12-18T18:48:50.989Z,-1.37
2022-12-18T18:51:21.106Z,-1.43
2022-12-18T18:53:50.126Z,-1.38
2022-12-18T18:59:05.324Z,-1.36
2022-12-18T19:01:31.878Z,-1.36
2022-12-18T19:03:58.432Z,-1.33
2022-12-18T19:06:27.265Z,-1.34
2022-12-18T19:08:55.762Z,-1.28
2022-12-18T19:11:42.215Z,-1.28
2022-12-18T19:14:10.583Z,-1.23
2022-12-18T19:16:37.377Z,-1.30
2022-12-18T19:19:04.622Z,-1.23
2022-12-18T19:21:34.244Z,-1.20
2022-12-18T19:24:02.494Z,-1.20
2022-12-18T19:26:29.091Z,-1.14
2022-12-18T19:29:02.045Z,-1.14
2022-12-18T19:31:34.764Z,-1.18
2022-12-18T19:34:02.011Z,-1.14
2022-12-18T19:36:29.921Z,-1.11
2022-12-18T19:38:59.641Z,-1.12
2022-12-18T19:41:31.125Z,-1.11
2022-12-18T19:43:58.498Z,-1.11
2022-12-18T19:46:25.217Z,-1.05
2022-12-18T19:48:52.134Z,-1.07
2022-12-18T19:51:27.212Z,-1.05
2022-12-18T19:53:58.524Z,-0.97
2022-12-18T19:56:28.144Z,-0.97
2022-12-18T19:58:54.698Z,-1.02
2022-12-18T20:01:23.180Z,-0.95
2022-12-18T20:03:52.239Z,-0.96
2022-12-18T20:06:27.033Z,-0.90
2022-12-18T20:08:58.212Z,-0.89
2022-12-18T20:11:26.822Z,-0.82
2022-12-18T20:13:53.153Z,-0.87
2022-12-18T20:16:19.655Z,-0.83
2022-12-18T20:18:46.120Z,-0.82
2022-12-18T20:21:14.148Z,-0.77
2022-12-18T20:23:41.487Z,-0.79
2022-12-18T20:26:08.652Z,-0.74
2022-12-18T20:28:35.238Z,-0.69
2022-12-18T20:31:03.449Z,-0.71
2022-12-18T20:33:30.405Z,-0.67
2022-12-18T20:36:06.194Z,-0.62
2022-12-18T20:38:33.383Z,-0.63
2022-12-18T20:41:02.354Z,-0.55
2022-12-18T20:43:29.567Z,-0.53
2022-12-18T20:46:03.922Z,-0.50
2022-12-18T20:48:30.716Z,-0.46
2022-12-18T20:51:17.895Z,-0.43
2022-12-18T20:53:45.869Z,-0.40
2022-12-18T20:56:21.204Z,-0.37
2022-12-18T20:58:49.520Z,-0.31
2022-12-18T21:01:18.775Z,-0.28
2022-12-18T21:03:46.024Z,-0.32
2022-12-18T21:06:13.734Z,-0.32
2022-12-18T21:08:40.135Z,-0.33
2022-12-18T21:11:40.419Z,-0.26
2022-12-18T21:14:11.714Z,-0.26
2022-12-18T21:16:39.891Z,-0.24
2022-12-18T21:19:06.480Z,-0.18
2022-12-18T21:21:38.585Z,-0.18
2022-12-18T21:24:06.716Z,-0.17
2022-12-18T21:26:33.693Z,-0.15
2022-12-18T21:29:03.014Z,-0.15
2022-12-18T21:31:32.216Z,-0.16
2022-12-18T21:34:01.907Z,-0.15
2022-12-18T21:36:29.220Z,-0.12
2022-12-18T21:38:56.496Z,-0.15
2022-12-18T21:41:42.525Z,-0.11
2022-12-18T21:44:13.463Z,-0.07
2022-12-18T21:46:43.160Z,-0.06
2022-12-18T21:49:10.738Z,-0.05
2022-12-18T21:51:37.876Z,-0.04
2022-12-18T21:54:04.479Z,-0.04
2022-12-18T21:57:04.407Z,-0.10
2022-12-18T21:59:41.649Z,-0.13
2022-12-18T22:02:15.778Z,-0.16
2022-12-18T22:04:43.611Z,-0.10
2022-12-18T22:07:10.872Z,-0.07
2022-12-18T22:09:38.130Z,-0.08
2022-12-18T22:12:04.812Z,-0.07
2022-12-18T22:14:31.295Z,-0.08
2022-12-18T22:16:58.705Z,-0.06
2022-12-18T22:19:26.204Z,-0.15
2022-12-18T22:21:53.767Z,-0.13
2022-12-18T22:24:25.815Z,-0.05
2022-12-18T22:26:54.184Z,-0.01
2022-12-18T22:29:47.222Z,-0.04
2022-12-18T22:32:16.851Z,-0.04
2022-12-18T22:34:46.775Z,-0.04
2022-12-18T22:37:13.560Z,-0.02
2022-12-18T22:39:40.216Z,0.00
2022-12-18T22:42:07.432Z,0.06
2022-12-18T22:44:33.906Z,0.08
2022-12-18T22:47:06.118Z,0.10
2022-12-18T22:49:35.679Z,0.09
2022-12-18T22:52:03.604Z,0.10
2022-12-18T22:54:30.096Z,0.11
2022-12-18T22:56:57.027Z,0.09
2022-12-18T22:59:24.031Z,0.08
2022-12-18T23:01:55.017Z,0.13
2022-12-18T23:04:29.068Z,0.14
2022-12-18T23:07:01.514Z,0.18
2022-12-18T23:09:28.464Z,0.23
2022-12-18T23:11:54.862Z,0.25
2022-12-18T23:14:21.263Z,0.29
2022-12-18T23:16:47.739Z,0.30
2022-12-18T23:19:16.411Z,0.30
2022-12-18T23:21:42.920Z,0.25
2022-12-18T23:24:09.318Z,0.29
2022-12-18T23:26:36.463Z,0.33
2022-12-18T23:29:03.660Z,0.37
2022-12-18T23:31:33.066Z,0.31
2022-12-18T23:34:01.581Z,0.34
2022-12-18T23:36:28.700Z,0.36
2022-12-18T23:39:00.558Z,0.38
2022-12-18T23:41:30.175Z,0.40
2022-12-18T23:43:57.636Z,0.40
2022-12-18T23:46:32.768Z,0.39
2022-12-18T23:49:01.117Z,0.39
2022-12-18T23:51:28.538Z,0.42
2022-12-18T23:53:57.459Z,0.46
2022-12-18T23:56:24.821Z,0.42
2022-12-18T23:58:52.104Z,0.46
